createdAt,value
2023-02-28T00:01:28.080Z,5.64
2023-02-28T00:04:00.970Z,5.72
2023-02-28T00:06:33.366Z,5.52
2023-02-28T00:09:05.798Z,5.40
2023-02-28T00:11:38.216Z,5.37
2023-02-28T00:14:10.610Z,5.57
2023-02-28T00:16:43.726Z,5.66
2023-02-28T00:19:16.181Z,5.64
2023-02-28T00:21:48.629Z,5.73
2023-02-28T00:24:21.137Z,5.82
2023-02-28T00:26:53.622Z,5.88
2023-02-28T00:29:25.975Z,5.83
2023-02-28T00:31:59.010Z,5.84
2023-02-28T00:34:31.398Z,5.90
2023-02-28T00:37:04.301Z,5.81
2023-02-28T00:39:39.846Z,5.33
2023-02-28T00:42:12.303Z,5.44
2023-02-28T00:44:44.755Z,5.49
2023-02-28T00:47:18.618Z,5.56
2023-02-28T00:49:51.196Z,5.58
2023-02-28T00:52:23.602Z,5.61
2023-02-28T00:54:56.148Z,5.63
2023-02-28T00:57:28.595Z,5.38
2023-02-28T01:00:01.083Z,5.36
2023-02-28T01:02:34.365Z,5.43
2023-02-28T01:05:07.487Z,5.44
2023-02-28T01:07:39.869Z,5.47
2023-02-28T01:10:12.690Z,5.47
2023-02-28T01:12:45.085Z,5.40
2023-02-28T01:15:17.587Z,5.40
2023-02-28T01:17:51.782Z,5.35
2023-02-28T01:20:24.644Z,5.15
2023-02-28T01:22:57.085Z,5.19
2023-02-28T01:25:29.554Z,5.27
2023-02-28T01:28:02.010Z,5.30
2023-02-28T01:30:34.426Z,5.33
2023-02-28T01:33:07.729Z,5.28
2023-02-28T01:35:40.177Z,5.29
2023-02-28T01:38:21.624Z,5.32
2023-02-28T01:40:55.128Z,5.27
2023-02-28T01:43:29.430Z,5.29
2023-02-28T01:46:02.027Z,5.29
2023-02-28T01:48:39.303Z,5.40
2023-02-28T01:51:15.694Z,5.46
2023-02-28T01:53:52.061Z,5.33
2023-02-28T01:56:29.631Z,5.39
2023-02-28T01:59:02.983Z,5.47
2023-02-28T02:01:35.656Z,5.51
2023-02-28T02:04:08.814Z,5.51
2023-02-28T02:06:45.245Z,5.47
2023-02-28T02:09:17.621Z,5.46
2023-02-28T02:11:50.035Z,5.47
2023-02-28T02:14:41.260Z,5.49
2023-02-28T02:17:24.850Z,5.49
2023-02-28T02:20:49.016Z,5.59
2023-02-28T02:23:54.885Z,5.50
2023-02-28T02:26:49.353Z,5.56
2023-02-28T02:29:54.616Z,5.59
2023-02-28T02:32:50.237Z,5.62
2023-02-28T02:35:28.649Z,5.66
2023-02-28T02:38:10.289Z,5.74
2023-02-28T02:40:51.048Z,5.66
2023-02-28T02:43:29.879Z,5.67
2023-02-28T02:46:06.938Z,5.67
2023-02-28T02:48:43.081Z,5.72
2023-02-28T02:51:19.567Z,5.70
2023-02-28T02:53:55.609Z,5.67
2023-02-28T02:56:30.938Z,5.70
2023-02-28T02:59:06.514Z,5.71
2023-02-28T03:01:40.821Z,5.70
2023-02-28T03:04:19.587Z,5.70
2023-02-28T03:06:55.060Z,5.71
2023-02-28T03:09:28.089Z,5.73
2023-02-28T03:12:00.876Z,5.75
2023-02-28T03:14:46.917Z,5.77
2023-02-28T03:17:34.986Z,5.76
2023-02-28T03:20:17.857Z,5.76
2023-02-28T03:23:03.818Z,5.80
2023-02-28T03:25:44.140Z,5.74
2023-02-28T03:28:25.745Z,5.72
2023-02-28T03:31:03.854Z,5.75
2023-02-28T03:33:40.157Z,5.71
2023-02-28T03:36:16.509Z,5.68
2023-02-28T03:38:53.371Z,5.67
2023-02-28T03:41:32.114Z,5.66
2023-02-28T03:44:09.892Z,5.68
2023-02-28T03:46:48.052Z,5.53
2023-02-28T03:49:24.630Z,5.47
2023-02-28T03:51:59.945Z,5.46
2023-02-28T03:54:38.426Z,5.47
2023-02-28T03:57:14.826Z,5.51
2023-02-28T03:59:51.671Z,5.47
2023-02-28T04:02:24.747Z,5.42
2023-02-28T04:04:57.154Z,5.30
2023-02-28T04:07:30.354Z,5.07
2023-02-28T04:10:04.536Z,4.80
2023-02-28T04:12:36.938Z,4.54
2023-02-28T04:15:10.859Z,4.40
2023-02-28T04:17:43.176Z,4.32
2023-02-28T04:20:15.611Z,4.35
2023-02-28T04:22:48.100Z,4.35
2023-02-28T04:25:21.152Z,4.39
2023-02-28T04:27:55.050Z,4.49
2023-02-28T04:30:27.406Z,4.59
2023-02-28T04:33:00.395Z,4.60
2023-02-28T04:35:32.827Z,4.55
2023-02-28T04:38:05.173Z,4.50
2023-02-28T04:40:38.174Z,4.49
2023-02-28T04:43:10.494Z,4.37
2023-02-28T04:45:43.343Z,4.34
2023-02-28T04:48:15.762Z,4.33
2023-02-28T04:50:48.146Z,4.25
2023-02-28T04:53:20.829Z,4.01
2023-02-28T04:55:53.809Z,3.89
2023-02-28T04:58:26.381Z,3.89
2023-02-28T05:01:03.583Z,3.81
2023-02-28T05:03:35.965Z,3.81
2023-02-28T05:06:08.787Z,3.93
2023-02-28T05:08:41.380Z,3.97
2023-02-28T05:11:18.162Z,4.05
2023-02-28T05:13:51.346Z,4.03
2023-02-28T05:16:23.695Z,4.07
2023-02-28T05:18:56.036Z,4.12
2023-02-28T05:21:31.060Z,4.25
2023-02-28T05:24:05.691Z,4.29
2023-02-28T05:26:41.064Z,4.22
2023-02-28T05:29:13.324Z,4.29
2023-02-28T05:31:45.942Z,4.20
2023-02-28T05:34:18.324Z,4.28
2023-02-28T05:36:50.601Z,4.19
2023-02-28T05:39:22.943Z,4.18
2023-02-28T05:41:56.006Z,4.32
2023-02-28T05:44:28.413Z,4.28
2023-02-28T05:47:00.805Z,4.36
2023-02-28T05:49:33.098Z,4.30
2023-02-28T05:52:05.488Z,4.42
2023-02-28T05:54:37.873Z,4.47
2023-02-28T05:57:19.079Z,4.44
2023-02-28T05:59:56.435Z,4.33
2023-02-28T06:02:29.029Z,4.38
2023-02-28T06:05:01.751Z,4.29
2023-02-28T06:07:34.112Z,4.21
2023-02-28T06:10:07.588Z,4.30
2023-02-28T06:12:41.926Z,4.28
2023-02-28T06:15:15.403Z,4.24
2023-02-28T06:17:47.801Z,4.45
2023-02-28T06:20:20.269Z,4.52
2023-02-28T06:22:54.725Z,4.56
2023-02-28T06:25:27.968Z,4.62
2023-02-28T06:28:01.092Z,4.65
2023-02-28T06:30:34.049Z,4.63
2023-02-28T06:33:06.378Z,4.74
2023-02-28T06:35:38.931Z,4.77
2023-02-28T06:38:11.405Z,4.86
2023-02-28T06:40:44.110Z,4.85
2023-02-28T06:43:17.235Z,4.74
2023-02-28T06:45:49.668Z,4.73
2023-02-28T06:48:22.135Z,4.68
2023-02-28T06:51:02.452Z,4.61
2023-02-28T06:53:35.329Z,4.62
2023-02-28T06:56:10.536Z,4.59
2023-02-28T06:58:47.431Z,4.63
2023-02-28T07:01:20.608Z,4.68
2023-02-28T07:03:53.067Z,4.81
2023-02-28T07:06:25.453Z,4.77
2023-02-28T07:08:58.096Z,4.94
2023-02-28T07:11:30.725Z,4.99
2023-02-28T07:14:03.936Z,5.04
2023-02-28T07:16:36.657Z,4.95
2023-02-28T07:19:09.102Z,4.89
2023-02-28T07:21:41.507Z,4.87
2023-02-28T07:24:15.985Z,4.94
2023-02-28T07:26:48.319Z,5.10
2023-02-28T07:29:21.554Z,5.14
2023-02-28T07:31:54.266Z,5.10
2023-02-28T07:34:26.669Z,5.14
2023-02-28T07:36:58.974Z,5.08
2023-02-28T07:39:31.295Z,5.09
2023-02-28T07:42:05.316Z,5.16
2023-02-28T07:44:40.808Z,5.17
2023-02-28T07:47:13.208Z,5.18
2023-02-28T07:49:46.294Z,5.29
2023-02-28T07:52:18.626Z,5.29
2023-02-28T07:54:50.957Z,5.41
2023-02-28T07:57:23.200Z,5.41
2023-02-28T07:59:56.258Z,5.66
2023-02-28T08:02:28.574Z,5.76
2023-02-28T08:05:01.732Z,5.73
2023-02-28T08:07:34.196Z,5.82
2023-02-28T08:10:09.124Z,5.88
2023-02-28T08:12:41.418Z,6.07
2023-02-28T08:15:14.422Z,6.21
2023-02-28T08:17:46.817Z,6.26
2023-02-28T08:20:19.462Z,6.28
2023-02-28T08:22:51.811Z,6.41
2023-02-28T08:25:24.244Z,6.43
2023-02-28T08:27:56.595Z,6.62
2023-02-28T08:30:29.645Z,6.79
2023-02-28T08:33:02.411Z,6.93
2023-02-28T08:35:37.022Z,7.08
2023-02-28T08:38:09.404Z,7.15
2023-02-28T08:40:41.707Z,7.22
2023-02-28T08:43:14.116Z,7.19
2023-02-28T08:45:47.268Z,7.31
2023-02-28T08:48:19.756Z,7.30
2023-02-28T08:51:06.753Z,7.30
2023-02-28T08:53:40.956Z,7.44
2023-02-28T08:56:14.993Z,7.27
2023-02-28T08:58:49.925Z,7.31
2023-02-28T09:01:24.893Z,7.17
2023-02-28T09:03:58.567Z,7.15
2023-02-28T09:06:31.158Z,7.08
2023-02-28T09:09:06.315Z,7.06
2023-02-28T09:11:38.861Z,6.97
2023-02-28T09:14:11.218Z,6.92
2023-02-28T09:16:44.365Z,6.72
2023-02-28T09:19:16.773Z,6.68
2023-02-28T09:21:49.033Z,6.60
2023-02-28T09:24:21.430Z,6.57
2023-02-28T09:27:03.820Z,6.48
2023-02-28T09:29:36.842Z,6.62
2023-02-28T09:32:09.906Z,6.61
2023-02-28T09:34:42.368Z,6.58
2023-02-28T09:37:14.735Z,6.62
2023-02-28T09:39:47.162Z,6.67
2023-02-28T09:42:26.822Z,6.71
2023-02-28T09:45:01.491Z,6.60
2023-02-28T09:47:39.011Z,6.70
2023-02-28T09:50:20.314Z,6.70
2023-02-28T09:52:55.225Z,6.75
2023-02-28T09:55:35.230Z,6.69
2023-02-28T09:58:21.440Z,6.75
2023-02-28T10:01:04.024Z,6.78
2023-02-28T10:03:40.540Z,6.81
2023-02-28T10:06:17.676Z,6.84
2023-02-28T10:08:59.067Z,6.78
2023-02-28T10:11:35.029Z,6.70
2023-02-28T10:14:13.757Z,6.83
2023-02-28T10:16:52.248Z,6.83
2023-02-28T10:19:32.789Z,6.96
2023-02-28T10:22:13.346Z,6.90
2023-02-28T10:24:47.180Z,6.85
2023-02-28T10:27:22.077Z,6.88
2023-02-28T10:29:56.255Z,6.99
2023-02-28T10:32:31.982Z,7.16
2023-02-28T10:35:16.760Z,7.24
2023-02-28T10:37:51.414Z,7.36
2023-02-28T10:40:31.364Z,7.67
2023-02-28T10:43:05.854Z,7.74
2023-02-28T10:45:38.591Z,7.99
2023-02-28T10:48:30.178Z,8.14
2023-02-28T10:51:04.858Z,8.30
2023-02-28T10:54:00.005Z,8.40
2023-02-28T10:56:33.470Z,8.61
2023-02-28T10:59:28.660Z,8.70
2023-02-28T11:02:01.481Z,8.64
2023-02-28T11:04:36.896Z,8.67
2023-02-28T11:07:22.110Z,8.78
2023-02-28T11:09:57.782Z,8.86
2023-02-28T11:12:47.012Z,8.95
2023-02-28T11:15:26.913Z,9.02
2023-02-28T11:18:02.578Z,9.17
2023-02-28T11:20:35.439Z,9.28
2023-02-28T11:23:14.826Z,9.41
2023-02-28T11:25:51.398Z,9.47
2023-02-28T11:28:29.765Z,9.57
2023-02-28T11:31:05.770Z,9.45
2023-02-28T11:33:45.250Z,9.71
2023-02-28T11:36:21.375Z,9.88
2023-02-28T11:38:56.281Z,10.03
2023-02-28T11:41:46.892Z,10.21
2023-02-28T11:44:32.655Z,10.18
2023-02-28T11:47:11.833Z,10.23
2023-02-28T11:49:51.065Z,10.21
2023-02-28T11:52:34.381Z,10.26
2023-02-28T11:55:17.571Z,10.32
2023-02-28T11:58:10.192Z,10.44
2023-02-28T12:01:11.203Z,10.44
2023-02-28T12:03:59.201Z,10.53
2023-02-28T12:06:37.424Z,10.47
2023-02-28T12:09:28.629Z,10.52
2023-02-28T12:12:11.397Z,10.56
2023-02-28T12:15:04.714Z,10.41
2023-02-28T12:17:50.513Z,10.48
2023-02-28T12:20:30.337Z,10.43
2023-02-28T12:23:22.608Z,10.50
2023-02-28T12:26:03.290Z,10.46
2023-02-28T12:28:42.278Z,10.53
2023-02-28T12:31:19.284Z,10.46
2023-02-28T12:33:54.927Z,10.40
2023-02-28T12:36:28.901Z,10.27
2023-02-28T12:39:07.223Z,10.03
2023-02-28T12:41:45.524Z,10.23
2023-02-28T12:44:22.636Z,10.12
2023-02-28T12:47:00.428Z,9.98
2023-02-28T12:49:39.104Z,9.93
2023-02-28T12:52:16.828Z,9.75
2023-02-28T12:54:55.472Z,9.64
2023-02-28T12:57:37.438Z,9.54
2023-02-28T13:00:16.224Z,9.58
2023-02-28T13:03:07.141Z,9.64
2023-02-28T13:06:20.507Z,9.57
2023-02-28T13:09:05.706Z,9.58
2023-02-28T13:11:43.074Z,9.48
2023-02-28T13:14:26.480Z,9.62
2023-02-28T13:17:11.013Z,9.56
2023-02-28T13:19:46.039Z,9.41
2023-02-28T13:22:21.610Z,9.38
2023-02-28T13:24:54.893Z,9.37
2023-02-28T13:27:37.202Z,9.48
2023-02-28T13:30:47.058Z,9.57
2023-02-28T13:33:25.261Z,9.57
2023-02-28T13:36:23.747Z,9.57
2023-02-28T13:39:00.918Z,9.48
2023-02-28T13:41:47.321Z,9.41
2023-02-28T13:44:24.359Z,9.44
2023-02-28T13:47:28.813Z,9.44
2023-02-28T13:50:23.518Z,9.32
2023-02-28T13:53:16.379Z,9.22
2023-02-28T13:55:58.054Z,9.30
2023-02-28T13:58:43.827Z,9.34
2023-02-28T14:01:28.489Z,9.33
2023-02-28T14:04:26.263Z,9.25
2023-02-28T14:07:00.959Z,9.25
2023-02-28T14:09:36.229Z,9.22
2023-02-28T14:12:46.127Z,9.16
2023-02-28T14:15:47.093Z,9.22
2023-02-28T14:18:27.293Z,9.25
2023-02-28T14:21:10.223Z,9.26
2023-02-28T14:24:03.901Z,9.39
2023-02-28T14:27:01.647Z,9.36
2023-02-28T14:30:12.315Z,9.23
2023-02-28T14:32:52.098Z,9.17
2023-02-28T14:35:36.276Z,9.11
2023-02-28T14:38:17.697Z,8.98
2023-02-28T14:40:53.887Z,9.07
2023-02-28T14:43:28.229Z,9.05
2023-02-28T14:46:02.567Z,8.95
2023-02-28T14:48:36.188Z,9.03
2023-02-28T14:51:09.942Z,8.92
2023-02-28T14:53:42.508Z,8.97
2023-02-28T14:56:22.892Z,8.97
2023-02-28T14:58:57.404Z,9.03
2023-02-28T15:01:30.814Z,9.08
2023-02-28T15:04:06.141Z,9.08
2023-02-28T15:06:38.571Z,9.08
2023-02-28T15:09:14.875Z,9.07
2023-02-28T15:11:50.616Z,8.98
2023-02-28T15:14:23.135Z,8.86
2023-02-28T15:17:00.881Z,8.70
2023-02-28T15:19:37.620Z,8.66
2023-02-28T15:22:17.204Z,8.68
2023-02-28T15:24:52.470Z,8.65
2023-02-28T15:27:28.600Z,8.69
2023-02-28T15:30:06.498Z,8.63
2023-02-28T15:32:40.361Z,8.50
2023-02-28T15:35:26.029Z,8.51
2023-02-28T15:38:01.498Z,8.39
2023-02-28T15:40:38.335Z,8.32
2023-02-28T15:43:17.092Z,8.25
2023-02-28T15:45:51.937Z,8.19
2023-02-28T15:48:27.698Z,8.17
2023-02-28T15:51:06.787Z,7.99
2023-02-28T15:53:48.773Z,7.84
2023-02-28T15:56:25.176Z,7.81
2023-02-28T15:59:01.004Z,7.69
2023-02-28T16:01:34.870Z,7.71
2023-02-28T16:04:14.805Z,7.57
2023-02-28T16:06:48.732Z,7.46
2023-02-28T16:09:21.183Z,7.54
2023-02-28T16:11:57.110Z,7.46
2023-02-28T16:14:31.114Z,7.48
2023-02-28T16:17:05.843Z,7.41
2023-02-28T16:19:38.177Z,7.41
2023-02-28T16:22:10.588Z,7.28
2023-02-28T16:24:43.145Z,7.24
2023-02-28T16:27:20.344Z,7.07
2023-02-28T16:29:54.211Z,7.07
2023-02-28T16:32:26.571Z,7.01
2023-02-28T16:34:59.059Z,6.91
2023-02-28T16:37:31.528Z,6.88
2023-02-28T16:40:04.297Z,6.88
2023-02-28T16:42:39.218Z,6.77
2023-02-28T16:45:19.512Z,6.62
2023-02-28T16:47:52.550Z,6.54
2023-02-28T16:50:28.049Z,6.66
2023-02-28T16:53:00.851Z,6.73
2023-02-28T16:55:34.930Z,6.72
2023-02-28T16:58:07.290Z,6.63
2023-02-28T17:00:40.404Z,6.64
2023-02-28T17:03:31.989Z,6.53
2023-02-28T17:06:05.978Z,6.52
2023-02-28T17:08:38.939Z,6.41
2023-02-28T17:11:11.356Z,6.42
2023-02-28T17:13:43.776Z,6.25
2023-02-28T17:16:23.847Z,6.25
2023-02-28T17:18:59.032Z,6.22
2023-02-28T17:21:31.958Z,6.15
2023-02-28T17:24:05.052Z,6.18
2023-02-28T17:26:37.442Z,6.16
2023-02-28T17:29:16.495Z,6.06
2023-02-28T17:31:49.610Z,6.02
2023-02-28T17:34:22.388Z,5.96
2023-02-28T17:36:54.719Z,5.97
2023-02-28T17:39:27.184Z,5.86
2023-02-28T17:41:59.546Z,5.87
2023-02-28T17:44:31.845Z,5.76
2023-02-28T17:47:04.950Z,5.63
2023-02-28T17:49:37.374Z,5.54
2023-02-28T17:52:09.805Z,5.50
2023-02-28T17:54:43.565Z,5.44
2023-02-28T17:57:16.355Z,5.42
2023-02-28T17:59:48.757Z,5.40
2023-02-28T18:02:21.774Z,5.44
2023-02-28T18:04:54.083Z,5.31
2023-02-28T18:07:26.386Z,5.27
2023-02-28T18:09:58.744Z,5.27
2023-02-28T18:12:31.605Z,5.26
2023-02-28T18:15:04.692Z,5.26
2023-02-28T18:17:37.688Z,5.21
2023-02-28T18:20:11.388Z,5.15
2023-02-28T18:22:43.718Z,5.08
2023-02-28T18:25:17.263Z,5.00
2023-02-28T18:27:57.686Z,5.11
2023-02-28T18:30:38.008Z,5.08
2023-02-28T18:33:10.973Z,5.06
2023-02-28T18:35:43.988Z,5.12
2023-02-28T18:38:19.179Z,5.17
2023-02-28T18:40:53.538Z,5.19
2023-02-28T18:43:25.942Z,5.14
2023-02-28T18:46:02.969Z,5.26
2023-02-28T18:48:36.105Z,5.24
2023-02-28T18:51:09.190Z,5.26
2023-02-28T18:53:42.647Z,5.25
2023-02-28T18:56:17.443Z,5.24
2023-02-28T18:58:50.150Z,5.21
2023-02-28T19:01:23.948Z,5.33
2023-02-28T19:03:58.175Z,5.25
2023-02-28T19:06:32.338Z,5.23
2023-02-28T19:09:05.529Z,5.31
2023-02-28T19:11:38.048Z,5.35
2023-02-28T19:14:10.329Z,5.36
2023-02-28T19:16:42.680Z,5.34
2023-02-28T19:19:15.646Z,5.30
2023-02-28T19:21:47.910Z,5.27
2023-02-28T19:24:20.482Z,5.27
2023-02-28T19:26:52.817Z,5.24
2023-02-28T19:29:25.159Z,5.16
2023-02-28T19:31:58.099Z,5.14
2023-02-28T19:34:31.361Z,5.18
2023-02-28T19:37:03.656Z,5.19
2023-02-28T19:39:40.619Z,5.13
2023-02-28T19:42:15.043Z,5.12
2023-02-28T19:44:47.375Z,5.18
2023-02-28T19:47:19.714Z,5.20
2023-02-28T19:49:53.997Z,5.20
2023-02-28T19:52:26.350Z,5.09
2023-02-28T19:54:58.851Z,5.01
2023-02-28T19:57:31.220Z,5.07
2023-02-28T20:00:04.615Z,4.96
2023-02-28T20:02:44.844Z,5.04
2023-02-28T20:05:18.209Z,4.97
2023-02-28T20:07:50.591Z,4.98
2023-02-28T20:10:23.112Z,5.04
2023-02-28T20:12:55.623Z,4.97
2023-02-28T20:15:28.353Z,4.87
2023-02-28T20:18:00.815Z,4.96
2023-02-28T20:20:36.760Z,4.99
2023-02-28T20:23:09.163Z,5.03
2023-02-28T20:25:41.886Z,5.07
2023-02-28T20:28:14.311Z,5.14
2023-02-28T20:30:48.084Z,5.21
2023-02-28T20:33:20.414Z,5.12
2023-02-28T20:35:59.205Z,5.14
2023-02-28T20:38:31.648Z,5.05
2023-02-28T20:41:05.129Z,5.08
2023-02-28T20:43:37.423Z,5.16
2023-02-28T20:46:10.102Z,5.12
2023-02-28T20:48:42.433Z,5.17
2023-02-28T20:51:15.891Z,5.26
2023-02-28T20:53:48.380Z,5.34
2023-02-28T20:56:22.993Z,5.35
2023-02-28T20:58:56.824Z,5.19
2023-02-28T21:01:30.781Z,5.31
2023-02-28T21:04:05.633Z,5.45
2023-02-28T21:06:42.285Z,5.50
2023-02-28T21:09:15.596Z,5.53
2023-02-28T21:11:48.764Z,5.56
2023-02-28T21:14:21.198Z,5.49
2023-02-28T21:16:53.553Z,5.46
2023-02-28T21:19:26.109Z,5.50
2023-02-28T21:21:59.047Z,5.52
2023-02-28T21:24:31.940Z,5.37
2023-02-28T21:27:04.325Z,5.47
2023-02-28T21:29:36.921Z,5.42
2023-02-28T21:32:09.312Z,5.38
2023-02-28T21:34:41.823Z,5.42
2023-02-28T21:37:14.796Z,5.31
2023-02-28T21:39:47.062Z,5.35
2023-02-28T21:42:19.397Z,5.18
2023-02-28T21:44:51.682Z,5.14
2023-02-28T21:47:24.011Z,5.15
2023-02-28T21:49:56.296Z,5.08
2023-02-28T21:52:29.233Z,5.08
2023-02-28T21:55:01.892Z,5.11
2023-02-28T21:57:35.254Z,5.01
2023-02-28T22:00:11.261Z,4.92
2023-02-28T22:02:46.389Z,4.84
2023-02-28T22:05:18.723Z,4.86
2023-02-28T22:07:51.650Z,4.77
2023-02-28T22:10:24.581Z,4.80
2023-02-28T22:13:01.048Z,4.84
2023-02-28T22:15:36.465Z,4.87
2023-02-28T22:18:08.825Z,4.85
2023-02-28T22:20:41.079Z,4.93
2023-02-28T22:23:14.062Z,4.96
2023-02-28T22:25:46.354Z,4.85
2023-02-28T22:28:18.652Z,4.99
2023-02-28T22:30:50.951Z,4.99
2023-02-28T22:33:23.818Z,4.88
2023-02-28T22:35:56.222Z,4.83
2023-02-28T22:38:29.266Z,4.86
2023-02-28T22:41:02.498Z,4.69
2023-02-28T22:43:34.868Z,4.68
2023-02-28T22:46:08.969Z,4.70
2023-02-28T22:48:41.326Z,4.76
2023-02-28T22:51:15.707Z,4.78
2023-02-28T22:53:49.873Z,4.72
2023-02-28T22:56:23.893Z,4.75
2023-02-28T22:58:58.434Z,4.77
2023-02-28T23:01:33.216Z,4.78
2023-02-28T23:04:06.615Z,4.68
2023-02-28T23:06:41.714Z,4.70
2023-02-28T23:09:17.378Z,4.66
2023-02-28T23:11:50.896Z,4.60
2023-02-28T23:14:23.248Z,4.64
2023-02-28T23:16:55.669Z,4.57
2023-02-28T23:19:30.288Z,4.53
2023-02-28T23:22:04.809Z,4.43
2023-02-28T23:24:38.756Z,4.32
2023-02-28T23:27:11.056Z,4.26
2023-02-28T23:29:43.367Z,4.26
2023-02-28T23:32:15.799Z,4.20
2023-02-28T23:34:48.245Z,4.17
2023-02-28T23:37:20.620Z,4.02
2023-02-28T23:39:53.768Z,4.02
2023-02-28T23:42:26.316Z,4.01
2023-02-28T23:44:58.616Z,3.94
2023-02-28T23:47:31.786Z,3.95
2023-02-28T23:50:04.888Z,3.97
2023-02-28T23:52:37.207Z,3.94
2023-02-28T23:55:11.068Z,3.98
2023-02-28T23:57:43.502Z,3.91
